Time;durP1;ratioP1;P1;durP2;ratioP2;P2;SDS_P1;SDS_P2;PMS_P1;PMS_P2;Temp;Humidity;BMP_temperature;BMP_pressure;BME280_temperature;BME280_humidity;BME280_pressure;Samples;Min_cycle;Max_cycle;Signal;HPM_P1;HPM_P2
2022/09/05 00:02:33;;;;;;;;;3.00;3.00;;;;;;;;5022555;28;8848;-82
2022/09/05 00:05:12;;;;;;;;;2.00;2.00;;;;;;;;5024679;28;8938;-82
2022/09/05 00:07:46;;;;;;;;;2.00;2.00;;;;;;;;5000863;28;8878;-82
2022/09/05 00:10:24;;;;;;;;;3.00;3.00;;;;;;;;5022241;28;8861;-83
2022/09/05 00:12:52;;;;;;;;;2.00;2.00;;;;;;;;5023451;28;8860;-82
2022/09/05 00:15:23;;;;;;;;;2.00;2.00;;;;;;;;5025149;28;9765;-82
2022/09/05 00:18:03;;;;;;;;;2.80;2.80;;;;;;;;5023931;28;8884;-82
2022/09/05 00:20:39;;;;;;;;;3.00;3.00;;;;;;;;5023670;28;9470;-82
2022/09/05 00:23:13;;;;;;;;;2.20;2.00;;;;;;;;5004044;28;8885;-82
2022/09/05 00:26:07;;;;;;;;;2.80;2.80;;;;;;;;5022963;28;8861;-82
2022/09/05 00:28:44;;;;;;;;;3.00;1.80;;;;;;;;5016621;28;8880;-81
2022/09/05 00:31:27;;;;;;;;;3.00;3.00;;;;;;;;5023199;28;8821;-82
2022/09/05 00:34:05;;;;;;;;;2.20;2.20;;;;;;;;5024149;28;9591;-81
2022/09/05 00:36:43;;;;;;;;;1.80;1.80;;;;;;;;4999106;28;10063;-81
2022/09/05 00:39:16;;;;;;;;;4.00;3.00;;;;;;;;5024408;28;8868;-82
2022/09/05 00:41:46;;;;;;;;;4.00;2.80;;;;;;;;5025513;28;8985;-81
2022/09/05 00:44:15;;;;;;;;;3.40;3.00;;;;;;;;5024986;28;8878;-80
2022/09/05 00:46:44;;;;;;;;;3.40;3.40;;;;;;;;5019500;28;8852;-82
2022/09/05 00:49:18;;;;;;;;;4.00;4.00;;;;;;;;5026300;28;8865;-82
2022/09/05 00:51:53;;;;;;;;;2.00;2.00;;;;;;;;5023123;28;8926;-81
2022/09/05 00:54:50;;;;;;;;;3.00;3.00;;;;;;;;5024551;28;8944;-82
2022/09/05 00:57:56;;;;;;;;;2.20;2.20;;;;;;;;5020858;28;8865;-83
2022/09/05 01:00:29;;;;;;;;;2.40;2.40;;;;;;;;4998935;28;13864;-82
2022/09/05 01:03:10;;;;;;;;;4.00;2.80;;;;;;;;5024086;28;8864;-83
2022/09/05 01:06:01;;;;;;;;;4.00;3.00;;;;;;;;5023690;28;8872;-83
2022/09/05 01:08:58;;;;;;;;;2.80;2.80;;;;;;;;5010581;28;8880;-82
2022/09/05 01:11:40;;;;;;;;;5.40;3.20;;;;;;;;5020757;28;8905;-82
2022/09/05 01:14:18;;;;;;;;;2.80;2.00;;;;;;;;5022010;28;8904;-83
2022/09/05 01:17:04;;;;;;;;;2.00;2.00;;;;;;;;5023663;28;8876;-83
2022/09/05 01:19:43;;;;;;;;;3.40;3.00;;;;;;;;5023736;28;8872;-82
2022/09/05 01:22:42;;;;;;;;;3.00;3.00;;;;;;;;5022710;28;8861;-83
2022/09/05 01:25:27;;;;;;;;;3.80;3.80;;;;;;;;5021674;28;8884;-82
2022/09/05 01:28:00;;;;;;;;;2.40;2.40;;;;;;;;5018224;28;8995;-82
2022/09/05 01:30:34;;;;;;;;;2.00;2.00;;;;;;;;5015667;28;8816;-83
2022/09/05 01:33:07;;;;;;;;;2.80;2.80;;;;;;;;5022987;28;9498;-82
2022/09/05 01:35:58;;;;;;;;;4.60;3.20;;;;;;;;5019155;28;8863;-82
2022/09/05 01:38:33;;;;;;;;;0.40;0.40;;;;;;;;5022477;28;8892;-81
2022/09/05 01:41:13;;;;;;;;;2.80;2.80;;;;;;;;5023206;28;8865;-82
2022/09/05 01:44:18;;;;;;;;;3.00;3.00;;;;;;;;5015134;28;8986;-83
2022/09/05 01:46:58;;;;;;;;;3.00;3.00;;;;;;;;4985509;28;9008;-82
2022/09/05 01:49:37;;;;;;;;;4.00;3.00;;;;;;;;5022847;28;8852;-81
2022/09/05 01:52:24;;;;;;;;;2.00;2.00;;;;;;;;5022684;28;9688;-82
2022/09/05 01:55:09;;;;;;;;;3.00;2.00;;;;;;;;5020277;28;8868;-82
2022/09/05 01:57:44;;;;;;;;;2.00;2.00;;;;;;;;5018321;28;8888;-82
2022/09/05 02:00:14;;;;;;;;;3.00;3.00;;;;;;;;5022567;28;8926;-82
2022/09/05 02:02:54;;;;;;;;;3.00;3.00;;;;;;;;5022609;28;8875;-82
2022/09/05 02:05:54;;;;;;;;;2.60;2.60;;;;;;;;5021750;28;9035;-82
2022/09/05 02:08:38;;;;;;;;;1.00;1.00;;;;;;;;4990508;28;9642;-82
2022/09/05 02:11:07;;;;;;;;;1.40;1.40;;;;;;;;5022826;28;8929;-82
2022/09/05 02:13:51;;;;;;;;;1.80;1.80;;;;;;;;5021545;28;8982;-82
2022/09/05 02:16:22;;;;;;;;;2.00;2.00;;;;;;;;5022613;28;8871;-82
2022/09/05 02:18:57;;;;;;;;;4.40;3.00;;;;;;;;5018067;28;8910;-82
2022/09/05 02:21:36;;;;;;;;;2.00;2.00;;;;;;;;5022624;28;8898;-82
2022/09/05 02:24:12;;;;;;;;;4.00;2.40;;;;;;;;5022362;28;8860;-82
2022/09/05 02:26:47;;;;;;;;;2.80;2.80;;;;;;;;5022209;28;8892;-82
2022/09/05 02:29:17;;;;;;;;;5.80;3.00;;;;;;;;5023000;28;8884;-84
2022/09/05 02:31:48;;;;;;;;;3.00;3.00;;;;;;;;5020973;28;8801;-82
2022/09/05 02:34:23;;;;;;;;;2.60;2.60;;;;;;;;5022253;28;8924;-82
2022/09/05 02:36:55;;;;;;;;;2.80;2.80;;;;;;;;5016478;28;8860;-83
2022/09/05 02:39:30;;;;;;;;;3.80;2.00;;;;;;;;5021589;28;8960;-82
2022/09/05 02:42:02;;;;;;;;;2.60;2.60;;;;;;;;5023052;28;8837;-82
2022/09/05 02:44:33;;;;;;;;;2.80;2.80;;;;;;;;5021549;28;8887;-81
2022/09/05 02:47:08;;;;;;;;;2.00;2.00;;;;;;;;4992538;28;9005;-82
2022/09/05 02:49:43;;;;;;;;;2.20;2.20;;;;;;;;5019412;28;9965;-81
2022/09/05 02:52:15;;;;;;;;;3.40;2.20;;;;;;;;5022326;28;8898;-82
2022/09/05 02:54:44;;;;;;;;;3.00;3.00;;;;;;;;5025608;28;9622;-82
2022/09/05 02:57:31;;;;;;;;;2.20;2.20;;;;;;;;5026061;28;8865;-82
2022/09/05 03:00:10;;;;;;;;;2.40;2.40;;;;;;;;4984947;28;8883;-82
2022/09/05 03:02:52;;;;;;;;;1.00;1.00;;;;;;;;5024901;28;8805;-82
2022/09/05 03:05:25;;;;;;;;;2.00;2.00;;;;;;;;5026715;28;8884;-82
2022/09/05 03:08:24;;;;;;;;;2.00;2.00;;;;;;;;5023386;28;8862;-81
2022/09/05 03:11:19;;;;;;;;;2.00;2.00;;;;;;;;5023371;28;8868;-82
2022/09/05 03:14:34;;;;;;;;;3.00;3.00;;;;;;;;5024563;28;8872;-82
2022/09/05 03:17:32;;;;;;;;;5.00;3.00;;;;;;;;5015387;28;8873;-80
2022/09/05 03:20:37;;;;;;;;;2.40;2.40;;;;;;;;5019893;28;8880;-82
2022/09/05 03:23:50;;;;;;;;;3.40;3.40;;;;;;;;5025712;28;9610;-82
2022/09/05 03:26:44;;;;;;;;;3.00;3.00;;;;;;;;4925968;29;8899;-81
2022/09/05 03:29:46;;;;;;;;;2.00;2.00;;;;;;;;5006084;28;8871;-82
2022/09/05 03:32:47;;;;;;;;;2.00;2.00;;;;;;;;5011287;28;8833;-81
2022/09/05 03:35:53;;;;;;;;;3.00;3.00;;;;;;;;5025761;28;9242;-80
2022/09/05 03:38:50;;;;;;;;;0.00;0.00;;;;;;;;5025252;28;8895;-81
2022/09/05 03:41:31;;;;;;;;;4.00;4.00;;;;;;;;4984683;28;8873;-81
2022/09/05 03:44:09;;;;;;;;;2.00;2.00;;;;;;;;5025297;28;8886;-81
2022/09/05 03:47:09;;;;;;;;;3.00;3.00;;;;;;;;5020484;28;8879;-81
2022/09/05 03:49:59;;;;;;;;;2.00;2.00;;;;;;;;5020612;28;8872;-82
2022/09/05 03:52:33;;;;;;;;;2.60;2.60;;;;;;;;5025718;28;8880;-82
2022/09/05 03:55:16;;;;;;;;;3.50;2.00;;;;;;;;5024176;28;8955;-81
2022/09/05 03:58:19;;;;;;;;;2.75;2.75;;;;;;;;5024160;28;8877;-81
2022/09/05 04:01:03;;;;;;;;;3.00;3.00;;;;;;;;5012595;28;8797;-81
2022/09/05 04:03:39;;;;;;;;;3.00;3.00;;;;;;;;5024782;28;8891;-81
2022/09/05 04:06:10;;;;;;;;;3.00;3.00;;;;;;;;5024977;28;8861;-82
2022/09/05 04:08:44;;;;;;;;;2.75;2.75;;;;;;;;5024353;28;8869;-82
2022/09/05 04:11:16;;;;;;;;;2.00;2.00;;;;;;;;5024377;28;8876;-81
2022/09/05 04:13:49;;;;;;;;;2.00;2.00;;;;;;;;5025572;28;8883;-81
2022/09/05 04:16:22;;;;;;;;;3.00;3.00;;;;;;;;5023792;28;8889;-82
2022/09/05 04:18:53;;;;;;;;;4.75;4.00;;;;;;;;5021943;28;8979;-81
2022/09/05 04:21:25;;;;;;;;;3.25;3.25;;;;;;;;5016824;28;8922;-81
2022/09/05 04:24:01;;;;;;;;;3.00;2.75;;;;;;;;5007095;28;8877;-81
2022/09/05 04:26:49;;;;;;;;;2.25;2.25;;;;;;;;5024472;28;8861;-81
2022/09/05 04:29:23;;;;;;;;;3.00;3.00;;;;;;;;5023852;28;8857;-81
2022/09/05 04:31:56;;;;;;;;;1.75;1.75;;;;;;;;5024150;28;8827;-81
2022/09/05 04:34:37;;;;;;;;;2.25;2.25;;;;;;;;5015243;28;8981;-82
2022/09/05 04:37:06;;;;;;;;;3.25;3.00;;;;;;;;5020335;28;8861;-81
2022/09/05 04:39:34;;;;;;;;;2.00;2.00;;;;;;;;5024559;28;8875;-81
2022/09/05 04:42:18;;;;;;;;;2.00;2.00;;;;;;;;5023007;28;8904;-81
2022/09/05 04:44:49;;;;;;;;;2.50;2.50;;;;;;;;5021120;28;9512;-80
2022/09/05 04:47:22;;;;;;;;;1.25;1.25;;;;;;;;5004357;28;8877;-79
2022/09/05 04:49:54;;;;;;;;;3.00;3.00;;;;;;;;5024134;28;8873;-80
2022/09/05 04:52:43;;;;;;;;;2.25;2.25;;;;;;;;5022295;28;8872;-80
2022/09/05 04:55:11;;;;;;;;;4.00;2.50;;;;;;;;5023268;28;8899;-80
2022/09/05 04:57:45;;;;;;;;;3.75;2.75;;;;;;;;5024104;28;8888;-80
2022/09/05 05:00:15;;;;;;;;;2.25;2.25;;;;;;;;5015522;28;8885;-80
2022/09/05 05:02:45;;;;;;;;;2.00;2.00;;;;;;;;5009134;28;8864;-80
2022/09/05 05:05:21;;;;;;;;;3.25;3.00;;;;;;;;5025431;28;8879;-80
2022/09/05 05:07:54;;;;;;;;;2.75;2.75;;;;;;;;5019870;28;8964;-80
2022/09/05 05:10:27;;;;;;;;;4.00;3.00;;;;;;;;5006545;28;8867;-81
2022/09/05 05:13:02;;;;;;;;;2.75;2.75;;;;;;;;5022727;28;8864;-81
2022/09/05 05:15:31;;;;;;;;;0.00;0.00;;;;;;;;5023660;28;9007;-81
2022/09/05 05:18:06;;;;;;;;;3.00;3.00;;;;;;;;4997292;28;8894;-81
2022/09/05 05:20:35;;;;;;;;;2.00;2.00;;;;;;;;5023577;28;8868;-81
2022/09/05 05:23:05;;;;;;;;;5.50;3.00;;;;;;;;5023730;28;8864;-81
2022/09/05 05:25:34;;;;;;;;;2.00;2.00;;;;;;;;5019617;28;8886;-81
2022/09/05 05:28:08;;;;;;;;;1.00;1.00;;;;;;;;5005788;28;10048;-81
2022/09/05 05:30:35;;;;;;;;;1.75;1.75;;;;;;;;5022114;28;8809;-81
2022/09/05 05:33:15;;;;;;;;;3.00;3.00;;;;;;;;5022042;28;8946;-81
2022/09/05 05:35:47;;;;;;;;;4.00;4.00;;;;;;;;5023554;28;8884;-79
2022/09/05 05:38:23;;;;;;;;;3.00;3.00;;;;;;;;5027776;28;8852;-81
2022/09/05 05:40:55;;;;;;;;;4.00;4.00;;;;;;;;5023981;28;8925;-84
2022/09/05 05:43:27;;;;;;;;;3.75;3.75;;;;;;;;5016329;28;8873;-83
2022/09/05 05:45:59;;;;;;;;;1.00;1.00;;;;;;;;5030312;28;8878;-82
2022/09/05 05:48:36;;;;;;;;;2.75;2.75;;;;;;;;5022146;28;8884;-83
2022/09/05 05:51:21;;;;;;;;;3.75;3.75;;;;;;;;5023058;28;8880;-83
2022/09/05 05:53:56;;;;;;;;;2.00;2.00;;;;;;;;5024716;28;8900;-78
2022/09/05 05:56:47;;;;;;;;;3.00;3.00;;;;;;;;5021694;28;8861;-81
2022/09/05 05:59:32;;;;;;;;;4.00;4.00;;;;;;;;5020902;28;8880;-81
2022/09/05 06:02:36;;;;;;;;;4.25;3.00;;;;;;;;5037227;28;8777;-80
2022/09/05 06:05:34;;;;;;;;;5.00;3.75;;;;;;;;5019859;28;8872;-82
2022/09/05 06:08:21;;;;;;;;;4.50;4.50;;;;;;;;5023378;28;8925;-81
2022/09/05 06:11:26;;;;;;;;;3.00;3.00;;;;;;;;5020469;28;8868;-82
2022/09/05 06:14:21;;;;;;;;;2.00;2.00;;;;;;;;5022250;28;9626;-81
2022/09/05 06:17:25;;;;;;;;;3.25;3.25;;;;;;;;5019644;28;8887;-82
2022/09/05 06:20:34;;;;;;;;;3.25;3.25;;;;;;;;5022790;28;8852;-82
2022/09/05 06:23:39;;;;;;;;;2.50;2.00;;;;;;;;5019947;28;8994;-75
2022/09/05 06:26:51;;;;;;;;;2.50;2.50;;;;;;;;4997495;28;8957;-76
2022/09/05 06:29:34;;;;;;;;;2.25;2.25;;;;;;;;5006134;28;8869;-75
2022/09/05 06:32:09;;;;;;;;;3.00;3.00;;;;;;;;5022947;28;9022;-81
2022/09/05 06:34:58;;;;;;;;;3.00;3.00;;;;;;;;5022516;28;8900;-83
2022/09/05 06:37:36;;;;;;;;;3.00;3.00;;;;;;;;5022419;28;8881;-79
2022/09/05 06:40:12;;;;;;;;;4.00;4.00;;;;;;;;5022791;28;8879;-79
2022/09/05 06:43:02;;;;;;;;;4.25;4.25;;;;;;;;5025186;28;8868;-84
2022/09/05 06:46:06;;;;;;;;;4.00;4.00;;;;;;;;5026383;28;8865;-82
2022/09/05 06:48:41;;;;;;;;;4.00;4.00;;;;;;;;5018486;28;8958;-82
2022/09/05 06:51:48;;;;;;;;;4.00;4.00;;;;;;;;5024803;28;8861;-79
2022/09/05 06:54:51;;;;;;;;;3.50;3.50;;;;;;;;5024354;28;8857;-82
2022/09/05 06:57:48;;;;;;;;;3.25;3.25;;;;;;;;5001824;28;8864;-84
2022/09/05 07:00:19;;;;;;;;;4.00;4.00;;;;;;;;5026966;28;8913;-78
2022/09/05 07:03:02;;;;;;;;;4.00;4.00;;;;;;;;5024531;28;8884;-79
2022/09/05 07:05:36;;;;;;;;;4.60;4.60;;;;;;;;5022804;28;8873;-81
2022/09/05 07:08:10;;;;;;;;;3.20;3.20;;;;;;;;5017772;28;8897;-81
2022/09/05 07:10:40;;;;;;;;;3.40;3.40;;;;;;;;5023898;28;9039;-82
2022/09/05 07:13:14;;;;;;;;;4.00;4.00;;;;;;;;5008756;28;8880;-82
2022/09/05 07:15:49;;;;;;;;;3.20;3.20;;;;;;;;5023249;28;8853;-82
2022/09/05 07:18:29;;;;;;;;;3.00;3.00;;;;;;;;5019610;28;8881;-80
2022/09/05 07:21:00;;;;;;;;;4.60;4.60;;;;;;;;5014112;28;8888;-80
2022/09/05 07:23:44;;;;;;;;;2.00;2.00;;;;;;;;5016819;28;8895;-80
2022/09/05 07:26:12;;;;;;;;;3.00;3.00;;;;;;;;5024460;28;9467;-80
2022/09/05 07:28:43;;;;;;;;;3.40;3.40;;;;;;;;5000774;28;8881;-80
2022/09/05 07:31:16;;;;;;;;;3.00;3.00;;;;;;;;5020850;28;8833;-80
2022/09/05 07:33:47;;;;;;;;;3.40;3.40;;;;;;;;5024969;28;8895;-79
2022/09/05 07:36:18;;;;;;;;;3.40;3.40;;;;;;;;5022771;28;8930;-80
2022/09/05 07:38:49;;;;;;;;;3.00;3.00;;;;;;;;5027957;28;8869;-80
2022/09/05 07:41:22;;;;;;;;;4.60;4.60;;;;;;;;5016676;28;8951;-79
2022/09/05 07:43:54;;;;;;;;;4.60;4.60;;;;;;;;5003935;28;10313;-79
2022/09/05 07:46:23;;;;;;;;;3.00;3.00;;;;;;;;5025037;28;8887;-80
2022/09/05 07:48:55;;;;;;;;;2.80;2.80;;;;;;;;5023071;28;8907;-79
2022/09/05 07:51:24;;;;;;;;;3.20;3.20;;;;;;;;5024855;28;8868;-79
2022/09/05 07:53:54;;;;;;;;;2.00;2.00;;;;;;;;5023663;28;8872;-79
2022/09/05 07:56:40;;;;;;;;;3.60;3.60;;;;;;;;5025146;28;8876;-79
2022/09/05 07:59:11;;;;;;;;;2.20;2.20;;;;;;;;5022262;28;8971;-79
2022/09/05 08:01:41;;;;;;;;;4.40;4.40;;;;;;;;5023481;28;8975;-80
2022/09/05 08:04:10;;;;;;;;;3.40;3.40;;;;;;;;5024841;28;9648;-79
2022/09/05 08:06:39;;;;;;;;;3.00;3.00;;;;;;;;5024600;28;8983;-80
2022/09/05 08:09:13;;;;;;;;;3.20;3.20;;;;;;;;5041754;28;8914;-80
2022/09/05 08:11:41;;;;;;;;;3.00;3.00;;;;;;;;5021825;28;8891;-80
2022/09/05 08:14:16;;;;;;;;;4.00;4.00;;;;;;;;5022206;28;8895;-79
2022/09/05 08:16:44;;;;;;;;;4.00;2.80;;;;;;;;5019419;28;8865;-79
2022/09/05 08:19:39;;;;;;;;;3.00;3.00;;;;;;;;5003401;28;8919;-79
2022/09/05 08:22:09;;;;;;;;;3.00;3.00;;;;;;;;5024609;28;9020;-79
2022/09/05 08:24:39;;;;;;;;;3.00;3.00;;;;;;;;5022916;28;8869;-79
2022/09/05 08:27:12;;;;;;;;;3.80;3.80;;;;;;;;5024611;28;8872;-80
2022/09/05 08:29:42;;;;;;;;;4.20;4.20;;;;;;;;5039850;28;8848;-79
2022/09/05 08:32:12;;;;;;;;;1.60;1.60;;;;;;;;5003340;28;8847;-79
2022/09/05 08:34:45;;;;;;;;;3.00;3.00;;;;;;;;5023848;28;8879;-80
2022/09/05 08:37:13;;;;;;;;;2.40;2.40;;;;;;;;5025246;28;9651;-79
2022/09/05 08:39:42;;;;;;;;;3.00;3.00;;;;;;;;5024560;28;8877;-79
2022/09/05 08:42:22;;;;;;;;;2.80;2.80;;;;;;;;5023229;28;8911;-79
2022/09/05 08:45:02;;;;;;;;;3.60;3.60;;;;;;;;5007540;28;8877;-81
2022/09/05 08:47:35;;;;;;;;;3.20;3.20;;;;;;;;5023898;28;8927;-80
2022/09/05 08:50:40;;;;;;;;;3.60;2.60;;;;;;;;5021464;28;9006;-80
2022/09/05 08:53:14;;;;;;;;;2.60;2.60;;;;;;;;5024015;28;8876;-80
2022/09/05 08:55:50;;;;;;;;;4.00;4.00;;;;;;;;5023554;28;8882;-80
2022/09/05 08:58:32;;;;;;;;;2.80;2.80;;;;;;;;5024199;28;8876;-81
2022/09/05 09:01:10;;;;;;;;;4.40;2.60;;;;;;;;5023021;28;8832;-80
2022/09/05 09:03:51;;;;;;;;;3.00;3.00;;;;;;;;5022965;28;8876;-80
2022/09/05 09:06:43;;;;;;;;;2.00;2.00;;;;;;;;5036420;28;8864;-80
2022/09/05 09:09:15;;;;;;;;;2.40;2.40;;;;;;;;5023980;28;8980;-80
2022/09/05 09:11:51;;;;;;;;;3.00;1.80;;;;;;;;5022898;28;9461;-80
2022/09/05 09:14:35;;;;;;;;;1.80;1.80;;;;;;;;5012318;28;9459;-80
2022/09/05 09:17:18;;;;;;;;;1.80;1.80;;;;;;;;5021935;28;9689;-80
2022/09/05 09:19:48;;;;;;;;;3.00;3.00;;;;;;;;5020383;28;8882;-81
2022/09/05 09:22:24;;;;;;;;;3.60;3.40;;;;;;;;5021641;28;8878;-80
2022/09/05 09:25:02;;;;;;;;;5.40;3.40;;;;;;;;5021573;28;8883;-80
2022/09/05 09:27:36;;;;;;;;;3.60;2.00;;;;;;;;5021601;28;8864;-80
2022/09/05 09:30:06;;;;;;;;;2.80;2.80;;;;;;;;5022614;28;9585;-79
2022/09/05 09:32:43;;;;;;;;;2.40;2.40;;;;;;;;5023205;28;8872;-81
2022/09/05 09:35:21;;;;;;;;;3.00;3.00;;;;;;;;5020154;28;8886;-80
2022/09/05 09:38:21;;;;;;;;;2.80;2.80;;;;;;;;5014044;28;8848;-79
2022/09/05 09:41:05;;;;;;;;;2.80;2.80;;;;;;;;5020565;28;8993;-74
2022/09/05 09:43:48;;;;;;;;;3.60;3.60;;;;;;;;5025263;28;9003;-75
2022/09/05 09:46:19;;;;;;;;;2.00;2.00;;;;;;;;5018502;28;8868;-75
2022/09/05 09:49:07;;;;;;;;;3.80;3.80;;;;;;;;5022933;28;8893;-74
2022/09/05 09:51:52;;;;;;;;;1.80;1.80;;;;;;;;5009736;28;8921;-74
2022/09/05 09:55:01;;;;;;;;;2.00;2.00;;;;;;;;5020369;28;8872;-74
2022/09/05 09:57:58;;;;;;;;;6.40;6.40;;;;;;;;4969996;28;8892;-74
2022/09/05 10:00:30;;;;;;;;;2.00;2.00;;;;;;;;5021969;28;8780;-75
2022/09/05 10:03:40;;;;;;;;;3.20;2.20;;;;;;;;5020788;28;8962;-75
2022/09/05 10:06:45;;;;;;;;;13.00;13.00;;;;;;;;5020394;28;8963;-75
2022/09/05 10:09:20;;;;;;;;;2.40;1.20;;;;;;;;5021426;28;8875;-74
2022/09/05 10:12:18;;;;;;;;;3.00;3.00;;;;;;;;5017435;28;8848;-76
2022/09/05 10:15:10;;;;;;;;;4.20;2.80;;;;;;;;5018362;28;8888;-75
2022/09/05 10:18:01;;;;;;;;;4.00;3.00;;;;;;;;4998592;28;8884;-75
2022/09/05 10:20:38;;;;;;;;;2.80;2.80;;;;;;;;5019224;28;9840;-76
2022/09/05 10:23:28;;;;;;;;;2.20;2.00;;;;;;;;5022709;28;8888;-76
2022/09/05 10:26:15;;;;;;;;;2.60;2.60;;;;;;;;5018980;28;8868;-75
2022/09/05 10:28:57;;;;;;;;;3.80;3.80;;;;;;;;5016692;28;9651;-76
2022/09/05 10:31:46;;;;;;;;;2.40;2.40;;;;;;;;5011150;28;8831;-76
2022/09/05 10:34:18;;;;;;;;;0.60;0.60;;;;;;;;5016540;28;8903;-77
2022/09/05 10:36:50;;;;;;;;;2.00;2.00;;;;;;;;5023115;28;8947;-76
2022/09/05 10:39:19;;;;;;;;;2.20;2.20;;;;;;;;5021350;28;9642;-76
2022/09/05 10:41:49;;;;;;;;;1.00;1.00;;;;;;;;5022547;28;8903;-74
2022/09/05 10:44:25;;;;;;;;;1.00;1.00;;;;;;;;5020765;28;8885;-75
2022/09/05 10:47:04;;;;;;;;;0.60;0.60;;;;;;;;5009943;28;9062;-75
2022/09/05 10:49:43;;;;;;;;;2.00;2.00;;;;;;;;5020595;28;9720;-77
2022/09/05 10:52:12;;;;;;;;;1.40;1.40;;;;;;;;5027966;28;8862;-78
2022/09/05 10:54:57;;;;;;;;;1.20;1.20;;;;;;;;5023087;28;8919;-77
2022/09/05 10:57:35;;;;;;;;;0.00;0.00;;;;;;;;5023794;28;9018;-75
2022/09/05 11:00:08;;;;;;;;;1.80;1.80;;;;;;;;5015196;28;8898;-76
2022/09/05 11:02:40;;;;;;;;;0.40;0.40;;;;;;;;5013379;28;8912;-76
2022/09/05 11:05:19;;;;;;;;;0.80;0.80;;;;;;;;5021287;28;8888;-76
2022/09/05 11:07:53;;;;;;;;;1.00;1.00;;;;;;;;5022921;28;8876;-76
2022/09/05 11:10:24;;;;;;;;;1.80;1.80;;;;;;;;5020958;28;8860;-75
2022/09/05 11:13:02;;;;;;;;;1.80;1.80;;;;;;;;5020832;28;8852;-78
2022/09/05 11:15:33;;;;;;;;;1.00;1.00;;;;;;;;5024493;28;8867;-75
2022/09/05 11:18:05;;;;;;;;;1.00;1.00;;;;;;;;5025113;28;8991;-76
2022/09/05 11:20:47;;;;;;;;;1.00;1.00;;;;;;;;5007648;28;8868;-74
2022/09/05 11:23:19;;;;;;;;;1.60;1.60;;;;;;;;5017562;28;8892;-74
2022/09/05 11:25:47;;;;;;;;;0.00;0.00;;;;;;;;5026636;28;8867;-75
2022/09/05 11:28:17;;;;;;;;;0.80;0.80;;;;;;;;5024552;28;8884;-74
2022/09/05 11:30:50;;;;;;;;;1.40;1.40;;;;;;;;5011887;28;8776;-76
2022/09/05 11:33:50;;;;;;;;;1.00;1.00;;;;;;;;5003116;28;8850;-74
2022/09/05 11:36:20;;;;;;;;;2.00;0.20;;;;;;;;5004628;28;8956;-75
2022/09/05 11:38:56;;;;;;;;;1.00;1.00;;;;;;;;5011663;28;8874;-74
2022/09/05 11:42:05;;;;;;;;;1.40;1.00;;;;;;;;4984514;28;8891;-74
2022/09/05 11:44:37;;;;;;;;;0.00;0.00;;;;;;;;4963173;28;8883;-74
2022/09/05 11:47:43;;;;;;;;;0.00;0.00;;;;;;;;5005415;28;8892;-74
2022/09/05 11:50:45;;;;;;;;;2.00;2.00;;;;;;;;5004914;28;8871;-74
2022/09/05 11:53:54;;;;;;;;;1.00;1.00;;;;;;;;4994998;28;9002;-74
2022/09/05 11:57:12;;;;;;;;;1.00;0.60;;;;;;;;4991334;28;8935;-74
2022/09/05 12:00:06;;;;;;;;;1.00;1.00;;;;;;;;4905353;29;8917;-74
2022/09/05 12:03:13;;;;;;;;;0.60;0.60;;;;;;;;5001750;28;8858;-74
2022/09/05 12:06:13;;;;;;;;;1.80;1.80;;;;;;;;4972698;28;8878;-74
2022/09/05 12:08:53;;;;;;;;;0.20;0.20;;;;;;;;5004973;28;8912;-74
2022/09/05 12:11:34;;;;;;;;;0.20;0.20;;;;;;;;5004160;28;8883;-74
2022/09/05 12:14:11;;;;;;;;;0.00;0.00;;;;;;;;5005297;28;8937;-75
2022/09/05 12:16:53;;;;;;;;;1.00;0.00;;;;;;;;5004494;28;8871;-73
2022/09/05 12:19:27;;;;;;;;;0.00;0.00;;;;;;;;5004188;28;8867;-74
2022/09/05 12:22:37;;;;;;;;;0.00;0.00;;;;;;;;5004387;28;8871;-74
2022/09/05 12:25:22;;;;;;;;;1.60;1.60;;;;;;;;4925332;29;8888;-74
2022/09/05 12:27:54;;;;;;;;;0.00;0.00;;;;;;;;4992286;28;8937;-74
2022/09/05 12:30:27;;;;;;;;;2.00;1.20;;;;;;;;5006738;28;9056;-74
2022/09/05 12:32:58;;;;;;;;;3.40;1.80;;;;;;;;5005201;28;8899;-74
2022/09/05 12:35:35;;;;;;;;;0.60;0.60;;;;;;;;5024317;28;8903;-74
2022/09/05 12:38:20;;;;;;;;;1.40;0.00;;;;;;;;5023792;28;8844;-74
2022/09/05 12:40:56;;;;;;;;;1.20;1.20;;;;;;;;5021918;28;8884;-75
2022/09/05 12:43:26;;;;;;;;;0.00;0.00;;;;;;;;5024490;28;9007;-74
2022/09/05 12:45:57;;;;;;;;;2.00;0.00;;;;;;;;5023389;28;8876;-74
2022/09/05 12:48:33;;;;;;;;;1.00;1.00;;;;;;;;5024117;28;8962;-75
2022/09/05 12:51:03;;;;;;;;;0.00;0.00;;;;;;;;5023680;28;8978;-74
2022/09/05 12:53:43;;;;;;;;;2.40;2.40;;;;;;;;5023377;28;8884;-74
2022/09/05 12:56:21;;;;;;;;;2.00;0.40;;;;;;;;5024359;28;8903;-73
2022/09/05 12:58:51;;;;;;;;;0.60;0.60;;;;;;;;5022844;28;8880;-74
2022/09/05 13:01:24;;;;;;;;;0.00;0.00;;;;;;;;5023719;28;8825;-75
2022/09/05 13:03:56;;;;;;;;;0.00;0.00;;;;;;;;5005215;28;8895;-74
2022/09/05 13:06:26;;;;;;;;;0.00;0.00;;;;;;;;5019009;28;8895;-74
2022/09/05 13:08:59;;;;;;;;;1.20;1.20;;;;;;;;5023994;28;9022;-74
2022/09/05 13:11:30;;;;;;;;;0.20;0.20;;;;;;;;5022617;28;8903;-74
2022/09/05 13:14:04;;;;;;;;;0.40;0.40;;;;;;;;5024288;28;9023;-75
2022/09/05 13:16:32;;;;;;;;;0.00;0.00;;;;;;;;5022368;28;9657;-76
2022/09/05 13:19:06;;;;;;;;;0.00;0.00;;;;;;;;5020247;28;9023;-75
2022/09/05 13:21:38;;;;;;;;;1.00;1.00;;;;;;;;5015934;28;8966;-73
2022/09/05 13:24:10;;;;;;;;;0.00;0.00;;;;;;;;5022179;28;8883;-74
2022/09/05 13:26:48;;;;;;;;;1.80;0.20;;;;;;;;5023180;28;8912;-75
2022/09/05 13:29:20;;;;;;;;;2.60;1.20;;;;;;;;5022246;28;9056;-74
2022/09/05 13:32:08;;;;;;;;;1.00;1.00;;;;;;;;5022587;28;8964;-75
2022/09/05 13:34:41;;;;;;;;;0.00;0.00;;;;;;;;5019978;28;8871;-74
2022/09/05 13:37:14;;;;;;;;;1.00;1.00;;;;;;;;5021600;28;8864;-75
2022/09/05 13:39:49;;;;;;;;;1.00;1.00;;;;;;;;5017613;28;8971;-74
2022/09/05 13:42:21;;;;;;;;;0.40;0.40;;;;;;;;5022513;28;8901;-74
2022/09/05 13:44:52;;;;;;;;;1.00;1.00;;;;;;;;5023530;28;8879;-75
2022/09/05 13:47:35;;;;;;;;;0.60;0.60;;;;;;;;5022896;28;8861;-75
2022/09/05 13:50:21;;;;;;;;;2.00;0.60;;;;;;;;5002663;28;9625;-75
2022/09/05 13:52:54;;;;;;;;;0.40;0.40;;;;;;;;5022978;28;9730;-75
2022/09/05 13:55:25;;;;;;;;;1.00;1.00;;;;;;;;5018249;28;8897;-74
2022/09/05 13:57:57;;;;;;;;;1.20;1.00;;;;;;;;5021877;28;8894;-75
2022/09/05 14:01:07;;;;;;;;;0.00;0.00;;;;;;;;5022134;28;8801;-76
2022/09/05 14:04:10;;;;;;;;;1.00;1.00;;;;;;;;4992798;28;8914;-76
2022/09/05 14:07:08;;;;;;;;;1.00;1.00;;;;;;;;5020801;28;8888;-76
2022/09/05 14:09:56;;;;;;;;;1.00;1.00;;;;;;;;5031665;28;8857;-76
2022/09/05 14:12:31;;;;;;;;;1.00;1.00;;;;;;;;5016683;28;8886;-76
2022/09/05 14:15:03;;;;;;;;;1.00;1.00;;;;;;;;5019740;28;8881;-76
2022/09/05 14:17:37;;;;;;;;;1.80;1.00;;;;;;;;5010895;28;8891;-77
2022/09/05 14:22:55;;;;;;;;;0.20;0.20;;;;;;;;5021196;28;8868;-75
2022/09/05 14:25:25;;;;;;;;;2.20;0.80;;;;;;;;5019751;28;8923;-75
2022/09/05 14:27:52;;;;;;;;;1.00;1.00;;;;;;;;5008973;28;8903;-76
2022/09/05 14:30:38;;;;;;;;;0.00;0.00;;;;;;;;5005135;28;9009;-77
2022/09/05 14:33:29;;;;;;;;;0.60;0.60;;;;;;;;5018404;28;8881;-76
2022/09/05 14:36:04;;;;;;;;;0.00;0.00;;;;;;;;5018580;28;9646;-75
2022/09/05 14:38:55;;;;;;;;;0.00;0.00;;;;;;;;5018985;28;9695;-76
2022/09/05 14:42:02;;;;;;;;;0.00;0.00;;;;;;;;5022154;28;8942;-74
2022/09/05 14:45:17;;;;;;;;;0.00;0.00;;;;;;;;5022071;28;8857;-75
2022/09/05 14:48:04;;;;;;;;;0.40;0.40;;;;;;;;4972285;28;8869;-76
2022/09/05 14:50:45;;;;;;;;;0.00;0.00;;;;;;;;4968485;28;8915;-76
2022/09/05 14:53:18;;;;;;;;;0.00;0.00;;;;;;;;5012181;28;8847;-75
2022/09/05 14:55:55;;;;;;;;;0.00;0.00;;;;;;;;5023166;28;8892;-75
2022/09/05 14:58:23;;;;;;;;;0.00;0.00;;;;;;;;5025355;28;8869;-76
2022/09/05 15:00:55;;;;;;;;;0.00;0.00;;;;;;;;5022826;28;8856;-76
2022/09/05 15:03:35;;;;;;;;;0.00;0.00;;;;;;;;5023177;28;8884;-76
2022/09/05 15:06:14;;;;;;;;;0.00;0.00;;;;;;;;5024544;28;8902;-75
2022/09/05 15:08:43;;;;;;;;;0.00;0.00;;;;;;;;5022921;28;8874;-76
2022/09/05 15:11:13;;;;;;;;;0.00;0.00;;;;;;;;5025059;28;8871;-76
2022/09/05 15:13:44;;;;;;;;;0.20;0.20;;;;;;;;5018816;28;8898;-76
2022/09/05 15:16:13;;;;;;;;;0.00;0.00;;;;;;;;5023567;28;8896;-76
2022/09/05 15:18:44;;;;;;;;;0.80;0.80;;;;;;;;5022380;28;8964;-76
2022/09/05 15:21:23;;;;;;;;;0.00;0.00;;;;;;;;5026504;28;8866;-76
2022/09/05 15:23:59;;;;;;;;;0.00;0.00;;;;;;;;5021986;28;9716;-75
2022/09/05 15:26:29;;;;;;;;;0.20;0.20;;;;;;;;5020786;28;8876;-75
2022/09/05 15:29:10;;;;;;;;;0.40;0.40;;;;;;;;5025555;28;8955;-75
2022/09/05 15:31:38;;;;;;;;;0.00;0.00;;;;;;;;5024028;28;8850;-76
2022/09/05 15:34:25;;;;;;;;;0.60;0.20;;;;;;;;5023067;28;8880;-76
2022/09/05 15:36:54;;;;;;;;;0.00;0.00;;;;;;;;5023932;28;8880;-75
2022/09/05 15:39:23;;;;;;;;;0.00;0.00;;;;;;;;5022844;28;9508;-75
2022/09/05 15:41:51;;;;;;;;;0.00;0.00;;;;;;;;5024200;28;8877;-76
2022/09/05 15:44:24;;;;;;;;;0.40;0.40;;;;;;;;5023558;28;8871;-78
2022/09/05 15:46:58;;;;;;;;;0.20;0.20;;;;;;;;5025990;28;8971;-78
2022/09/05 15:49:41;;;;;;;;;0.00;0.00;;;;;;;;5024484;28;8943;-77
2022/09/05 15:52:27;;;;;;;;;0.00;0.00;;;;;;;;5022483;28;8900;-76
2022/09/05 15:54:58;;;;;;;;;0.60;0.60;;;;;;;;5023867;28;8863;-76
2022/09/05 15:57:27;;;;;;;;;0.40;0.40;;;;;;;;5017164;28;9685;-77
2022/09/05 15:59:56;;;;;;;;;0.80;0.80;;;;;;;;5022130;28;8868;-76
2022/09/05 16:02:26;;;;;;;;;0.00;0.00;;;;;;;;5023079;28;9602;-76
2022/09/05 16:05:05;;;;;;;;;0.00;0.00;;;;;;;;5022354;28;10455;-76
2022/09/05 16:07:35;;;;;;;;;1.00;1.00;;;;;;;;5024088;28;8872;-77
2022/09/05 16:10:06;;;;;;;;;0.60;0.60;;;;;;;;5020645;28;9498;-78
2022/09/05 16:12:37;;;;;;;;;1.00;1.00;;;;;;;;5023045;28;8899;-77
2022/09/05 16:15:07;;;;;;;;;0.00;0.00;;;;;;;;5021905;28;8860;-77